sensor_id;sensor_type;location;lat;lon;timestamp;P1;durP1;ratioP1;P2;durP2;ratioP2
76978;SDS011;65911;47.502;19.148;2023-08-17T00:02:21;9.53;;;6.43;;
76978;SDS011;65911;47.502;19.148;2023-08-17T00:05:23;8.82;;;6.35;;
76978;SDS011;65911;47.502;19.148;2023-08-17T00:08:26;8.10;;;6.13;;
76978;SDS011;65911;47.502;19.148;2023-08-17T00:11:28;10.68;;;6.70;;
76978;SDS011;65911;47.502;19.148;2023-08-17T00:14:30;9.25;;;6.20;;
76978;SDS011;65911;47.502;19.148;2023-08-17T00:17:32;9.07;;;6.45;;
76978;SDS011;65911;47.502;19.148;2023-08-17T00:20:35;8.88;;;6.45;;
76978;SDS011;65911;47.502;19.148;2023-08-17T00:23:37;8.20;;;5.80;;
76978;SDS011;65911;47.502;19.148;2023-08-17T00:26:40;7.18;;;6.15;;
76978;SDS011;65911;47.502;19.148;2023-08-17T00:29:42;7.85;;;6.47;;
76978;SDS011;65911;47.502;19.148;2023-08-17T00:32:44;8.37;;;6.50;;
76978;SDS011;65911;47.502;19.148;2023-08-17T00:35:46;7.20;;;5.93;;
76978;SDS011;65911;47.502;19.148;2023-08-17T00:38:49;9.32;;;6.32;;
76978;SDS011;65911;47.502;19.148;2023-08-17T00:41:51;9.57;;;6.07;;
76978;SDS011;65911;47.502;19.148;2023-08-17T00:44:53;9.18;;;6.40;;
76978;SDS011;65911;47.502;19.148;2023-08-17T00:47:56;8.48;;;6.50;;
76978;SDS011;65911;47.502;19.148;2023-08-17T00:50:59;8.00;;;6.25;;
76978;SDS011;65911;47.502;19.148;2023-08-17T00:54:02;12.90;;;6.23;;
76978;SDS011;65911;47.502;19.148;2023-08-17T00:57:04;7.70;;;6.32;;
76978;SDS011;65911;47.502;19.148;2023-08-17T01:00:09;6.72;;;5.93;;
76978;SDS011;65911;47.502;19.148;2023-08-17T01:03:13;10.30;;;6.10;;
76978;SDS011;65911;47.502;19.148;2023-08-17T01:06:16;10.95;;;5.88;;
76978;SDS011;65911;47.502;19.148;2023-08-17T01:09:19;9.50;;;5.85;;
76978;SDS011;65911;47.502;19.148;2023-08-17T01:15:39;6.95;;;5.57;;
76978;SDS011;65911;47.502;19.148;2023-08-17T01:18:43;7.05;;;5.88;;
76978;SDS011;65911;47.502;19.148;2023-08-17T01:21:49;8.55;;;6.20;;
76978;SDS011;65911;47.502;19.148;2023-08-17T01:24:56;7.90;;;5.73;;
76978;SDS011;65911;47.502;19.148;2023-08-17T01:28:02;8.80;;;6.20;;
76978;SDS011;65911;47.502;19.148;2023-08-17T01:31:14;8.07;;;5.95;;
76978;SDS011;65911;47.502;19.148;2023-08-17T01:34:24;10.47;;;5.53;;
76978;SDS011;65911;47.502;19.148;2023-08-17T01:37:29;7.10;;;5.50;;
76978;SDS011;65911;47.502;19.148;2023-08-17T01:40:34;9.38;;;6.63;;
76978;SDS011;65911;47.502;19.148;2023-08-17T01:43:36;8.98;;;5.82;;
76978;SDS011;65911;47.502;19.148;2023-08-17T01:46:40;7.45;;;5.47;;
76978;SDS011;65911;47.502;19.148;2023-08-17T01:49:44;9.27;;;6.07;;
76978;SDS011;65911;47.502;19.148;2023-08-17T01:52:46;6.25;;;5.65;;
76978;SDS011;65911;47.502;19.148;2023-08-17T01:55:48;7.90;;;5.67;;
76978;SDS011;65911;47.502;19.148;2023-08-17T01:58:53;9.15;;;6.07;;
76978;SDS011;65911;47.502;19.148;2023-08-17T02:01:57;7.50;;;5.57;;
76978;SDS011;65911;47.502;19.148;2023-08-17T02:04:59;9.50;;;6.13;;
76978;SDS011;65911;47.502;19.148;2023-08-17T02:08:02;7.68;;;5.65;;
76978;SDS011;65911;47.502;19.148;2023-08-17T02:11:05;6.65;;;5.45;;
76978;SDS011;65911;47.502;19.148;2023-08-17T02:14:07;8.07;;;5.97;;
76978;SDS011;65911;47.502;19.148;2023-08-17T02:17:09;8.65;;;6.15;;
76978;SDS011;65911;47.502;19.148;2023-08-17T02:20:12;8.13;;;5.50;;
76978;SDS011;65911;47.502;19.148;2023-08-17T02:23:17;8.07;;;5.65;;
76978;SDS011;65911;47.502;19.148;2023-08-17T02:26:19;8.43;;;5.80;;
76978;SDS011;65911;47.502;19.148;2023-08-17T02:29:21;7.18;;;6.00;;
76978;SDS011;65911;47.502;19.148;2023-08-17T02:32:24;7.13;;;6.00;;
76978;SDS011;65911;47.502;19.148;2023-08-17T02:35:26;9.60;;;6.27;;
76978;SDS011;65911;47.502;19.148;2023-08-17T02:38:28;8.95;;;4.95;;
76978;SDS011;65911;47.502;19.148;2023-08-17T02:41:31;8.18;;;6.30;;
76978;SDS011;65911;47.502;19.148;2023-08-17T02:44:34;7.43;;;5.22;;
76978;SDS011;65911;47.502;19.148;2023-08-17T02:47:37;6.53;;;5.25;;
76978;SDS011;65911;47.502;19.148;2023-08-17T02:50:39;7.00;;;5.47;;
76978;SDS011;65911;47.502;19.148;2023-08-17T02:53:41;8.43;;;6.20;;
76978;SDS011;65911;47.502;19.148;2023-08-17T02:56:44;9.43;;;5.87;;
76978;SDS011;65911;47.502;19.148;2023-08-17T02:59:46;7.80;;;5.53;;
76978;SDS011;65911;47.502;19.148;2023-08-17T03:02:48;9.05;;;5.70;;
76978;SDS011;65911;47.502;19.148;2023-08-17T03:05:50;6.30;;;5.40;;
76978;SDS011;65911;47.502;19.148;2023-08-17T03:08:53;8.88;;;5.60;;
76978;SDS011;65911;47.502;19.148;2023-08-17T03:11:55;5.88;;;5.18;;
76978;SDS011;65911;47.502;19.148;2023-08-17T03:14:57;8.88;;;5.50;;
76978;SDS011;65911;47.502;19.148;2023-08-17T03:18:00;6.93;;;5.53;;
76978;SDS011;65911;47.502;19.148;2023-08-17T03:21:02;7.63;;;5.63;;
76978;SDS011;65911;47.502;19.148;2023-08-17T03:24:05;8.32;;;5.32;;
76978;SDS011;65911;47.502;19.148;2023-08-17T03:27:07;7.63;;;5.13;;
76978;SDS011;65911;47.502;19.148;2023-08-17T03:30:10;7.18;;;5.35;;
76978;SDS011;65911;47.502;19.148;2023-08-17T03:33:12;7.30;;;5.78;;
76978;SDS011;65911;47.502;19.148;2023-08-17T03:36:15;8.77;;;5.63;;
76978;SDS011;65911;47.502;19.148;2023-08-17T03:39:17;8.35;;;5.65;;
76978;SDS011;65911;47.502;19.148;2023-08-17T03:42:19;9.77;;;5.97;;
76978;SDS011;65911;47.502;19.148;2023-08-17T03:45:22;7.43;;;5.88;;
76978;SDS011;65911;47.502;19.148;2023-08-17T03:48:25;9.40;;;5.78;;
76978;SDS011;65911;47.502;19.148;2023-08-17T03:51:28;9.70;;;5.85;;
76978;SDS011;65911;47.502;19.148;2023-08-17T03:54:30;6.63;;;5.30;;
76978;SDS011;65911;47.502;19.148;2023-08-17T03:57:33;8.57;;;5.50;;
76978;SDS011;65911;47.502;19.148;2023-08-17T04:00:37;10.20;;;5.68;;
76978;SDS011;65911;47.502;19.148;2023-08-17T04:03:41;6.97;;;5.38;;
76978;SDS011;65911;47.502;19.148;2023-08-17T04:06:43;8.70;;;6.20;;
76978;SDS011;65911;47.502;19.148;2023-08-17T04:09:46;9.90;;;5.80;;
76978;SDS011;65911;47.502;19.148;2023-08-17T04:12:48;7.15;;;5.65;;
76978;SDS011;65911;47.502;19.148;2023-08-17T04:15:52;9.23;;;5.47;;
76978;SDS011;65911;47.502;19.148;2023-08-17T04:18:54;6.60;;;6.00;;
76978;SDS011;65911;47.502;19.148;2023-08-17T04:21:57;9.38;;;6.05;;
76978;SDS011;65911;47.502;19.148;2023-08-17T04:25:00;11.52;;;5.80;;
76978;SDS011;65911;47.502;19.148;2023-08-17T04:28:02;7.03;;;5.00;;
76978;SDS011;65911;47.502;19.148;2023-08-17T04:31:06;11.43;;;5.72;;
76978;SDS011;65911;47.502;19.148;2023-08-17T04:34:12;10.63;;;5.68;;
76978;SDS011;65911;47.502;19.148;2023-08-17T04:37:15;6.87;;;5.67;;
76978;SDS011;65911;47.502;19.148;2023-08-17T04:40:17;7.10;;;5.70;;
76978;SDS011;65911;47.502;19.148;2023-08-17T04:43:19;8.38;;;5.60;;
76978;SDS011;65911;47.502;19.148;2023-08-17T04:46:22;8.10;;;5.57;;
76978;SDS011;65911;47.502;19.148;2023-08-17T04:49:25;6.95;;;6.00;;
76978;SDS011;65911;47.502;19.148;2023-08-17T04:52:28;7.40;;;5.68;;
76978;SDS011;65911;47.502;19.148;2023-08-17T04:55:30;8.25;;;6.10;;
76978;SDS011;65911;47.502;19.148;2023-08-17T04:58:34;7.93;;;5.90;;
76978;SDS011;65911;47.502;19.148;2023-08-17T05:01:36;9.48;;;6.15;;
76978;SDS011;65911;47.502;19.148;2023-08-17T05:04:43;11.50;;;6.22;;
76978;SDS011;65911;47.502;19.148;2023-08-17T05:07:45;8.27;;;6.30;;
76978;SDS011;65911;47.502;19.148;2023-08-17T05:10:48;11.35;;;6.55;;
76978;SDS011;65911;47.502;19.148;2023-08-17T05:13:50;7.85;;;6.65;;
76978;SDS011;65911;47.502;19.148;2023-08-17T05:16:53;9.70;;;7.22;;
76978;SDS011;65911;47.502;19.148;2023-08-17T05:19:55;8.90;;;6.40;;
76978;SDS011;65911;47.502;19.148;2023-08-17T05:22:58;7.90;;;6.30;;
76978;SDS011;65911;47.502;19.148;2023-08-17T05:26:00;13.02;;;6.43;;
76978;SDS011;65911;47.502;19.148;2023-08-17T05:29:03;10.07;;;7.13;;
76978;SDS011;65911;47.502;19.148;2023-08-17T05:32:06;10.38;;;7.10;;
76978;SDS011;65911;47.502;19.148;2023-08-17T05:35:09;9.20;;;6.50;;
76978;SDS011;65911;47.502;19.148;2023-08-17T05:38:11;11.30;;;6.07;;
76978;SDS011;65911;47.502;19.148;2023-08-17T05:41:15;9.75;;;5.95;;
76978;SDS011;65911;47.502;19.148;2023-08-17T05:44:19;8.80;;;6.30;;
76978;SDS011;65911;47.502;19.148;2023-08-17T05:47:21;8.40;;;6.10;;
76978;SDS011;65911;47.502;19.148;2023-08-17T05:50:24;9.10;;;5.80;;
76978;SDS011;65911;47.502;19.148;2023-08-17T05:53:26;7.25;;;5.88;;
76978;SDS011;65911;47.502;19.148;2023-08-17T05:56:28;8.25;;;5.80;;
76978;SDS011;65911;47.502;19.148;2023-08-17T05:59:30;6.97;;;5.77;;
76978;SDS011;65911;47.502;19.148;2023-08-17T06:02:32;7.90;;;5.50;;
76978;SDS011;65911;47.502;19.148;2023-08-17T06:09:33;5.90;;;5.30;;
76978;SDS011;65911;47.502;19.148;2023-08-17T06:13:08;8.50;;;5.22;;
76978;SDS011;65911;47.502;19.148;2023-08-17T06:16:23;11.15;;;5.30;;
76978;SDS011;65911;47.502;19.148;2023-08-17T06:19:49;7.72;;;5.05;;
76978;SDS011;65911;47.502;19.148;2023-08-17T06:23:13;7.75;;;4.70;;
76978;SDS011;65911;47.502;19.148;2023-08-17T06:30:19;6.20;;;4.75;;
76978;SDS011;65911;47.502;19.148;2023-08-17T06:34:00;6.23;;;4.80;;
76978;SDS011;65911;47.502;19.148;2023-08-17T06:37:03;6.00;;;4.90;;
76978;SDS011;65911;47.502;19.148;2023-08-17T06:40:05;6.72;;;5.00;;
76978;SDS011;65911;47.502;19.148;2023-08-17T06:43:08;7.57;;;4.70;;
76978;SDS011;65911;47.502;19.148;2023-08-17T06:46:11;9.52;;;4.75;;
76978;SDS011;65911;47.502;19.148;2023-08-17T06:49:13;7.50;;;5.22;;
76978;SDS011;65911;47.502;19.148;2023-08-17T06:52:15;7.68;;;5.20;;
76978;SDS011;65911;47.502;19.148;2023-08-17T06:55:18;7.00;;;4.75;;
76978;SDS011;65911;47.502;19.148;2023-08-17T06:58:20;8.07;;;5.00;;
76978;SDS011;65911;47.502;19.148;2023-08-17T07:01:22;6.78;;;5.20;;
76978;SDS011;65911;47.502;19.148;2023-08-17T07:04:25;5.67;;;4.50;;
76978;SDS011;65911;47.502;19.148;2023-08-17T07:07:27;7.22;;;4.75;;
76978;SDS011;65911;47.502;19.148;2023-08-17T07:10:30;6.60;;;4.88;;
76978;SDS011;65911;47.502;19.148;2023-08-17T07:13:32;6.03;;;4.80;;
76978;SDS011;65911;47.502;19.148;2023-08-17T07:16:34;6.97;;;4.93;;
76978;SDS011;65911;47.502;19.148;2023-08-17T07:19:37;7.18;;;5.15;;
76978;SDS011;65911;47.502;19.148;2023-08-17T07:22:59;7.28;;;5.18;;
76978;SDS011;65911;47.502;19.148;2023-08-17T07:26:01;6.88;;;4.72;;
76978;SDS011;65911;47.502;19.148;2023-08-17T07:29:03;7.57;;;4.70;;
76978;SDS011;65911;47.502;19.148;2023-08-17T07:32:05;6.68;;;4.60;;
76978;SDS011;65911;47.502;19.148;2023-08-17T07:35:08;5.20;;;4.70;;
76978;SDS011;65911;47.502;19.148;2023-08-17T07:38:10;6.30;;;4.47;;
76978;SDS011;65911;47.502;19.148;2023-08-17T07:41:12;8.20;;;4.72;;
76978;SDS011;65911;47.502;19.148;2023-08-17T07:44:16;6.27;;;4.93;;
76978;SDS011;65911;47.502;19.148;2023-08-17T07:47:18;6.38;;;4.80;;
76978;SDS011;65911;47.502;19.148;2023-08-17T07:50:22;7.63;;;5.10;;
76978;SDS011;65911;47.502;19.148;2023-08-17T07:53:25;4.63;;;4.20;;
76978;SDS011;65911;47.502;19.148;2023-08-17T07:56:27;5.30;;;4.53;;
76978;SDS011;65911;47.502;19.148;2023-08-17T07:59:29;5.03;;;4.50;;
76978;SDS011;65911;47.502;19.148;2023-08-17T08:02:32;6.60;;;4.50;;
76978;SDS011;65911;47.502;19.148;2023-08-17T08:05:34;4.00;;;3.57;;
76978;SDS011;65911;47.502;19.148;2023-08-17T08:08:36;5.82;;;3.72;;
76978;SDS011;65911;47.502;19.148;2023-08-17T08:11:38;6.13;;;3.80;;
76978;SDS011;65911;47.502;19.148;2023-08-17T08:14:41;4.63;;;3.70;;
76978;SDS011;65911;47.502;19.148;2023-08-17T08:17:43;4.93;;;3.38;;
76978;SDS011;65911;47.502;19.148;2023-08-17T08:20:45;4.78;;;3.50;;
76978;SDS011;65911;47.502;19.148;2023-08-17T08:23:50;4.22;;;3.55;;
76978;SDS011;65911;47.502;19.148;2023-08-17T08:26:53;4.32;;;3.38;;
76978;SDS011;65911;47.502;19.148;2023-08-17T08:29:56;4.05;;;3.30;;
76978;SDS011;65911;47.502;19.148;2023-08-17T08:32:59;5.05;;;3.13;;
76978;SDS011;65911;47.502;19.148;2023-08-17T08:36:02;3.30;;;2.90;;
76978;SDS011;65911;47.502;19.148;2023-08-17T08:39:04;4.30;;;3.42;;
76978;SDS011;65911;47.502;19.148;2023-08-17T08:42:06;5.65;;;3.30;;
76978;SDS011;65911;47.502;19.148;2023-08-17T08:45:09;4.67;;;3.20;;
76978;SDS011;65911;47.502;19.148;2023-08-17T08:48:11;3.20;;;2.90;;
76978;SDS011;65911;47.502;19.148;2023-08-17T08:51:16;3.78;;;3.10;;
76978;SDS011;65911;47.502;19.148;2023-08-17T08:54:22;3.97;;;3.38;;
76978;SDS011;65911;47.502;19.148;2023-08-17T08:57:27;4.85;;;3.35;;
76978;SDS011;65911;47.502;19.148;2023-08-17T09:00:30;6.22;;;3.60;;
76978;SDS011;65911;47.502;19.148;2023-08-17T09:03:32;4.78;;;3.58;;
76978;SDS011;65911;47.502;19.148;2023-08-17T09:06:34;7.20;;;3.00;;
76978;SDS011;65911;47.502;19.148;2023-08-17T09:09:37;3.40;;;3.00;;
76978;SDS011;65911;47.502;19.148;2023-08-17T09:12:39;4.35;;;2.80;;
76978;SDS011;65911;47.502;19.148;2023-08-17T09:15:43;5.70;;;3.13;;
76978;SDS011;65911;47.502;19.148;2023-08-17T09:18:45;4.07;;;2.70;;
76978;SDS011;65911;47.502;19.148;2023-08-17T09:21:47;4.55;;;3.05;;
76978;SDS011;65911;47.502;19.148;2023-08-17T09:24:52;5.65;;;3.17;;
76978;SDS011;65911;47.502;19.148;2023-08-17T09:27:54;4.30;;;2.92;;
76978;SDS011;65911;47.502;19.148;2023-08-17T09:31:00;3.78;;;3.30;;
76978;SDS011;65911;47.502;19.148;2023-08-17T09:34:05;3.47;;;3.03;;
76978;SDS011;65911;47.502;19.148;2023-08-17T09:37:08;5.03;;;2.80;;
76978;SDS011;65911;47.502;19.148;2023-08-17T09:40:10;7.28;;;3.22;;
76978;SDS011;65911;47.502;19.148;2023-08-17T09:43:13;3.60;;;2.75;;
76978;SDS011;65911;47.502;19.148;2023-08-17T09:46:17;4.90;;;3.07;;
76978;SDS011;65911;47.502;19.148;2023-08-17T09:49:19;4.32;;;3.00;;
76978;SDS011;65911;47.502;19.148;2023-08-17T09:52:22;4.95;;;3.53;;
76978;SDS011;65911;47.502;19.148;2023-08-17T09:55:26;5.05;;;3.13;;
76978;SDS011;65911;47.502;19.148;2023-08-17T09:58:28;4.80;;;3.40;;
76978;SDS011;65911;47.502;19.148;2023-08-17T10:01:33;4.05;;;3.20;;
76978;SDS011;65911;47.502;19.148;2023-08-17T10:04:35;7.32;;;3.40;;
76978;SDS011;65911;47.502;19.148;2023-08-17T10:07:40;3.83;;;2.70;;
76978;SDS011;65911;47.502;19.148;2023-08-17T10:10:45;4.90;;;3.05;;
76978;SDS011;65911;47.502;19.148;2023-08-17T10:13:51;6.47;;;3.10;;
76978;SDS011;65911;47.502;19.148;2023-08-17T10:16:59;3.70;;;2.90;;
76978;SDS011;65911;47.502;19.148;2023-08-17T10:20:04;4.45;;;2.88;;
76978;SDS011;65911;47.502;19.148;2023-08-17T10:23:08;7.97;;;3.03;;
76978;SDS011;65911;47.502;19.148;2023-08-17T10:26:14;5.25;;;3.00;;
76978;SDS011;65911;47.502;19.148;2023-08-17T10:29:16;3.97;;;2.78;;
76978;SDS011;65911;47.502;19.148;2023-08-17T10:32:21;3.10;;;2.70;;
76978;SDS011;65911;47.502;19.148;2023-08-17T10:35:23;4.60;;;2.67;;
76978;SDS011;65911;47.502;19.148;2023-08-17T10:38:27;5.60;;;3.43;;
76978;SDS011;65911;47.502;19.148;2023-08-17T10:41:29;3.08;;;2.75;;
76978;SDS011;65911;47.502;19.148;2023-08-17T10:47:47;3.63;;;2.80;;
76978;SDS011;65911;47.502;19.148;2023-08-17T10:51:02;3.17;;;2.85;;
76978;SDS011;65911;47.502;19.148;2023-08-17T10:54:06;3.17;;;2.80;;
76978;SDS011;65911;47.502;19.148;2023-08-17T11:00:33;5.10;;;2.73;;
76978;SDS011;65911;47.502;19.148;2023-08-17T11:03:38;3.63;;;2.78;;
76978;SDS011;65911;47.502;19.148;2023-08-17T11:06:42;3.55;;;2.67;;
76978;SDS011;65911;47.502;19.148;2023-08-17T11:09:45;3.73;;;2.90;;
76978;SDS011;65911;47.502;19.148;2023-08-17T11:12:47;4.80;;;2.75;;
76978;SDS011;65911;47.502;19.148;2023-08-17T11:15:54;7.30;;;3.13;;
76978;SDS011;65911;47.502;19.148;2023-08-17T11:18:57;5.13;;;3.00;;
76978;SDS011;65911;47.502;19.148;2023-08-17T11:22:01;4.00;;;2.70;;
76978;SDS011;65911;47.502;19.148;2023-08-17T11:25:03;4.72;;;2.75;;
76978;SDS011;65911;47.502;19.148;2023-08-17T11:28:06;4.55;;;3.10;;
76978;SDS011;65911;47.502;19.148;2023-08-17T11:31:11;4.43;;;2.67;;
76978;SDS011;65911;47.502;19.148;2023-08-17T11:34:14;4.20;;;2.90;;
76978;SDS011;65911;47.502;19.148;2023-08-17T11:37:17;4.57;;;2.75;;
76978;SDS011;65911;47.502;19.148;2023-08-17T11:40:19;3.87;;;3.00;;
76978;SDS011;65911;47.502;19.148;2023-08-17T11:43:21;5.35;;;2.60;;
76978;SDS011;65911;47.502;19.148;2023-08-17T11:46:24;5.97;;;3.40;;
76978;SDS011;65911;47.502;19.148;2023-08-17T11:49:31;7.38;;;2.90;;
76978;SDS011;65911;47.502;19.148;2023-08-17T11:52:39;3.58;;;2.83;;
76978;SDS011;65911;47.502;19.148;2023-08-17T11:55:47;4.50;;;3.20;;
76978;SDS011;65911;47.502;19.148;2023-08-17T11:58:55;5.97;;;2.95;;
76978;SDS011;65911;47.502;19.148;2023-08-17T12:01:57;3.30;;;2.80;;
76978;SDS011;65911;47.502;19.148;2023-08-17T12:05:02;6.13;;;2.83;;
76978;SDS011;65911;47.502;19.148;2023-08-17T12:08:07;5.57;;;3.05;;
76978;SDS011;65911;47.502;19.148;2023-08-17T12:11:09;9.07;;;3.20;;
76978;SDS011;65911;47.502;19.148;2023-08-17T12:14:12;4.65;;;2.90;;
76978;SDS011;65911;47.502;19.148;2023-08-17T12:17:14;6.03;;;2.95;;
76978;SDS011;65911;47.502;19.148;2023-08-17T12:20:20;9.55;;;2.88;;
76978;SDS011;65911;47.502;19.148;2023-08-17T12:23:22;3.30;;;2.50;;
76978;SDS011;65911;47.502;19.148;2023-08-17T12:26:24;6.55;;;3.13;;
76978;SDS011;65911;47.502;19.148;2023-08-17T12:29:27;8.20;;;2.78;;
76978;SDS011;65911;47.502;19.148;2023-08-17T12:32:29;4.13;;;2.97;;
76978;SDS011;65911;47.502;19.148;2023-08-17T12:35:31;5.60;;;3.08;;
76978;SDS011;65911;47.502;19.148;2023-08-17T12:38:34;4.90;;;2.75;;
76978;SDS011;65911;47.502;19.148;2023-08-17T12:41:36;5.15;;;2.80;;
76978;SDS011;65911;47.502;19.148;2023-08-17T12:44:41;5.03;;;3.10;;
76978;SDS011;65911;47.502;19.148;2023-08-17T12:47:43;6.40;;;3.05;;
76978;SDS011;65911;47.502;19.148;2023-08-17T12:50:45;4.32;;;2.83;;
76978;SDS011;65911;47.502;19.148;2023-08-17T12:53:48;5.10;;;2.90;;
76978;SDS011;65911;47.502;19.148;2023-08-17T12:56:51;5.18;;;2.75;;
76978;SDS011;65911;47.502;19.148;2023-08-17T13:00:00;6.60;;;2.90;;
76978;SDS011;65911;47.502;19.148;2023-08-17T13:03:02;4.73;;;3.20;;
76978;SDS011;65911;47.502;19.148;2023-08-17T13:06:05;4.18;;;2.63;;
76978;SDS011;65911;47.502;19.148;2023-08-17T13:09:07;4.75;;;3.00;;
76978;SDS011;65911;47.502;19.148;2023-08-17T13:12:10;4.47;;;3.05;;
76978;SDS011;65911;47.502;19.148;2023-08-17T13:15:13;3.45;;;2.88;;
76978;SDS011;65911;47.502;19.148;2023-08-17T13:18:16;3.60;;;2.90;;
76978;SDS011;65911;47.502;19.148;2023-08-17T13:21:18;5.28;;;2.80;;
76978;SDS011;65911;47.502;19.148;2023-08-17T13:24:22;4.33;;;2.63;;
76978;SDS011;65911;47.502;19.148;2023-08-17T13:27:26;5.13;;;2.90;;
76978;SDS011;65911;47.502;19.148;2023-08-17T13:30:29;3.42;;;2.90;;
76978;SDS011;65911;47.502;19.148;2023-08-17T13:33:31;3.70;;;2.90;;
76978;SDS011;65911;47.502;19.148;2023-08-17T13:36:34;3.88;;;2.72;;
76978;SDS011;65911;47.502;19.148;2023-08-17T13:39:36;5.88;;;3.20;;
76978;SDS011;65911;47.502;19.148;2023-08-17T13:42:38;3.90;;;2.90;;
76978;SDS011;65911;47.502;19.148;2023-08-17T13:45:41;5.40;;;2.90;;
76978;SDS011;65911;47.502;19.148;2023-08-17T13:48:43;4.53;;;3.00;;
76978;SDS011;65911;47.502;19.148;2023-08-17T13:51:45;4.72;;;2.72;;
76978;SDS011;65911;47.502;19.148;2023-08-17T13:54:48;4.93;;;2.60;;
76978;SDS011;65911;47.502;19.148;2023-08-17T13:57:50;7.32;;;3.08;;
76978;SDS011;65911;47.502;19.148;2023-08-17T14:00:54;3.47;;;2.67;;
76978;SDS011;65911;47.502;19.148;2023-08-17T14:03:56;4.50;;;2.87;;
76978;SDS011;65911;47.502;19.148;2023-08-17T14:06:59;3.95;;;2.97;;
76978;SDS011;65911;47.502;19.148;2023-08-17T14:10:01;4.63;;;3.20;;
76978;SDS011;65911;47.502;19.148;2023-08-17T14:13:13;6.30;;;3.30;;
76978;SDS011;65911;47.502;19.148;2023-08-17T14:16:15;5.68;;;3.20;;
76978;SDS011;65911;47.502;19.148;2023-08-17T14:22:38;3.90;;;3.50;;
76978;SDS011;65911;47.502;19.148;2023-08-17T14:25:55;4.23;;;3.30;;
76978;SDS011;65911;47.502;19.148;2023-08-17T14:29:04;5.68;;;3.47;;
76978;SDS011;65911;47.502;19.148;2023-08-17T14:32:06;6.82;;;3.97;;
76978;SDS011;65911;47.502;19.148;2023-08-17T14:35:08;4.30;;;3.73;;
76978;SDS011;65911;47.502;19.148;2023-08-17T14:38:14;4.55;;;3.40;;
76978;SDS011;65911;47.502;19.148;2023-08-17T14:41:16;5.53;;;3.70;;
76978;SDS011;65911;47.502;19.148;2023-08-17T14:44:18;4.43;;;3.38;;
76978;SDS011;65911;47.502;19.148;2023-08-17T14:47:20;5.43;;;3.57;;
76978;SDS011;65911;47.502;19.148;2023-08-17T14:50:23;6.50;;;4.38;;
76978;SDS011;65911;47.502;19.148;2023-08-17T14:53:30;4.90;;;3.40;;
76978;SDS011;65911;47.502;19.148;2023-08-17T14:56:32;6.07;;;4.13;;
76978;SDS011;65911;47.502;19.148;2023-08-17T14:59:34;6.03;;;3.92;;
76978;SDS011;65911;47.502;19.148;2023-08-17T15:02:57;5.45;;;3.65;;
76978;SDS011;65911;47.502;19.148;2023-08-17T15:05:59;5.55;;;3.60;;
76978;SDS011;65911;47.502;19.148;2023-08-17T15:09:02;6.75;;;3.65;;
76978;SDS011;65911;47.502;19.148;2023-08-17T15:12:05;6.20;;;3.97;;
76978;SDS011;65911;47.502;19.148;2023-08-17T15:15:08;4.97;;;3.78;;
76978;SDS011;65911;47.502;19.148;2023-08-17T15:18:11;7.70;;;4.00;;
76978;SDS011;65911;47.502;19.148;2023-08-17T15:21:13;6.55;;;3.88;;
76978;SDS011;65911;47.502;19.148;2023-08-17T15:24:15;5.68;;;3.97;;
76978;SDS011;65911;47.502;19.148;2023-08-17T15:27:17;6.55;;;3.70;;
76978;SDS011;65911;47.502;19.148;2023-08-17T15:30:20;5.57;;;3.63;;
76978;SDS011;65911;47.502;19.148;2023-08-17T15:33:22;4.55;;;3.92;;
76978;SDS011;65911;47.502;19.148;2023-08-17T15:36:24;6.65;;;3.92;;
76978;SDS011;65911;47.502;19.148;2023-08-17T15:39:28;6.53;;;4.23;;
76978;SDS011;65911;47.502;19.148;2023-08-17T15:42:33;6.43;;;3.88;;
76978;SDS011;65911;47.502;19.148;2023-08-17T15:45:35;5.95;;;3.95;;
76978;SDS011;65911;47.502;19.148;2023-08-17T15:48:37;5.03;;;4.00;;
76978;SDS011;65911;47.502;19.148;2023-08-17T15:51:39;7.93;;;4.00;;
76978;SDS011;65911;47.502;19.148;2023-08-17T15:54:42;6.93;;;3.75;;
76978;SDS011;65911;47.502;19.148;2023-08-17T15:57:44;4.70;;;3.63;;
76978;SDS011;65911;47.502;19.148;2023-08-17T16:00:46;6.83;;;4.50;;
76978;SDS011;65911;47.502;19.148;2023-08-17T16:03:48;8.02;;;4.00;;
76978;SDS011;65911;47.502;19.148;2023-08-17T16:06:50;5.07;;;4.30;;
76978;SDS011;65911;47.502;19.148;2023-08-17T16:09:53;5.07;;;4.00;;
76978;SDS011;65911;47.502;19.148;2023-08-17T16:12:55;5.00;;;3.87;;
76978;SDS011;65911;47.502;19.148;2023-08-17T16:15:57;5.72;;;3.90;;
76978;SDS011;65911;47.502;19.148;2023-08-17T16:18:59;6.43;;;3.97;;
76978;SDS011;65911;47.502;19.148;2023-08-17T16:22:05;6.97;;;4.30;;
76978;SDS011;65911;47.502;19.148;2023-08-17T16:25:08;6.28;;;3.90;;
76978;SDS011;65911;47.502;19.148;2023-08-17T16:28:10;6.20;;;4.03;;
76978;SDS011;65911;47.502;19.148;2023-08-17T16:31:12;6.30;;;4.32;;
76978;SDS011;65911;47.502;19.148;2023-08-17T16:34:16;6.20;;;4.65;;
76978;SDS011;65911;47.502;19.148;2023-08-17T16:37:20;8.98;;;4.30;;
76978;SDS011;65911;47.502;19.148;2023-08-17T16:40:36;8.55;;;4.80;;
76978;SDS011;65911;47.502;19.148;2023-08-17T16:43:40;7.67;;;4.63;;
76978;SDS011;65911;47.502;19.148;2023-08-17T16:46:42;10.40;;;5.10;;
76978;SDS011;65911;47.502;19.148;2023-08-17T16:49:44;12.32;;;5.22;;
76978;SDS011;65911;47.502;19.148;2023-08-17T16:52:46;7.83;;;4.83;;
76978;SDS011;65911;47.502;19.148;2023-08-17T16:55:48;11.25;;;4.60;;
76978;SDS011;65911;47.502;19.148;2023-08-17T16:58:54;9.07;;;4.93;;
76978;SDS011;65911;47.502;19.148;2023-08-17T17:02:02;7.55;;;5.05;;
76978;SDS011;65911;47.502;19.148;2023-08-17T17:05:05;7.60;;;4.97;;
76978;SDS011;65911;47.502;19.148;2023-08-17T17:08:07;6.85;;;5.00;;
76978;SDS011;65911;47.502;19.148;2023-08-17T17:11:10;10.18;;;4.70;;
76978;SDS011;65911;47.502;19.148;2023-08-17T17:14:12;8.30;;;5.10;;
76978;SDS011;65911;47.502;19.148;2023-08-17T17:17:14;9.52;;;4.88;;
76978;SDS011;65911;47.502;19.148;2023-08-17T17:20:16;9.77;;;5.10;;
76978;SDS011;65911;47.502;19.148;2023-08-17T17:23:18;8.18;;;5.68;;
76978;SDS011;65911;47.502;19.148;2023-08-17T17:26:21;8.18;;;5.28;;
76978;SDS011;65911;47.502;19.148;2023-08-17T17:29:23;7.82;;;5.32;;
76978;SDS011;65911;47.502;19.148;2023-08-17T17:32:25;6.60;;;5.53;;
76978;SDS011;65911;47.502;19.148;2023-08-17T17:35:27;9.63;;;5.30;;
76978;SDS011;65911;47.502;19.148;2023-08-17T17:38:30;5.60;;;4.90;;
76978;SDS011;65911;47.502;19.148;2023-08-17T17:41:32;8.60;;;5.00;;
76978;SDS011;65911;47.502;19.148;2023-08-17T17:44:34;6.67;;;5.27;;
76978;SDS011;65911;47.502;19.148;2023-08-17T17:47:36;9.57;;;5.65;;
76978;SDS011;65911;47.502;19.148;2023-08-17T17:50:39;7.32;;;5.18;;
76978;SDS011;65911;47.502;19.148;2023-08-17T17:53:41;8.45;;;5.95;;
76978;SDS011;65911;47.502;19.148;2023-08-17T17:56:43;7.57;;;5.70;;
76978;SDS011;65911;47.502;19.148;2023-08-17T17:59:45;7.45;;;5.55;;
76978;SDS011;65911;47.502;19.148;2023-08-17T18:02:48;7.50;;;5.88;;
76978;SDS011;65911;47.502;19.148;2023-08-17T18:05:50;6.80;;;5.37;;
76978;SDS011;65911;47.502;19.148;2023-08-17T18:08:52;7.53;;;5.50;;
76978;SDS011;65911;47.502;19.148;2023-08-17T18:11:55;8.82;;;5.53;;
76978;SDS011;65911;47.502;19.148;2023-08-17T18:14:58;7.77;;;5.90;;
76978;SDS011;65911;47.502;19.148;2023-08-17T18:18:00;8.20;;;6.03;;
76978;SDS011;65911;47.502;19.148;2023-08-17T18:21:06;6.05;;;5.45;;
76978;SDS011;65911;47.502;19.148;2023-08-17T18:24:08;9.93;;;5.93;;
76978;SDS011;65911;47.502;19.148;2023-08-17T18:27:10;12.38;;;6.18;;
76978;SDS011;65911;47.502;19.148;2023-08-17T18:30:13;8.35;;;6.10;;